This is the latest recevied weather packets stored in our database for station/object N4OGP-WX. If no packets are shown the sender has not sent any weather packets the latest 1 day(s).
| Time | Temp. | Humidity | Pressure | Rain* | Wind** | Luminosity | Snow |
|---|---|---|---|---|---|---|---|
| 1778056047 | 22.22° C | 90% | 1010 hPa | 0 mm | - | - | - |
| 1778055987 | 23.89° C | 42% | 1020.4 hPa | 0 mm | - | - | - |
| 1778055897 | 23.89° C | 42% | 1020.4 hPa | 0 mm | - | - | - |
| 1778055837 | 23.89° C | 42% | 1020.4 hPa | 0 mm | - | - | - |
| 1778055777 | 23.89° C | 42% | 1020.4 hPa | 0 mm | - | - | - |
| 1778055717 | 23.89° C | 42% | 1020.4 hPa | 0 mm | - | - | - |
| 1778055657 | 22.22° C | 89% | 1010 hPa | 0 mm | - | - | - |
| 1778055597 | 23.89° C | 42% | 1020.4 hPa | 0 mm | - | - | - |
| 1778055537 | 22.22° C | 89% | 1010.1 hPa | 0 mm | - | - | - |
| 1778055447 | 22.22° C | 89% | 1010.1 hPa | 0 mm | - | - | - |
| 1778055357 | 22.22° C | 89% | 1010.1 hPa | 0 mm | - | - | - |
| 1778055297 | 23.89° C | 42% | 1020.4 hPa | 0 mm | - | - | - |
| 1778055237 | 23.89° C | 42% | 1020.4 hPa | 0 mm | - | - | - |
| 1778055147 | 23.89° C | 42% | 1020.4 hPa | 0 mm | - | - | - |
| 1778055027 | 23.89° C | 42% | 1020.4 hPa | 0 mm | - | - | - |
| 1778054967 | 23.89° C | 42% | 1020.4 hPa | 0 mm | - | - | - |
| 1778054907 | 23.89° C | 42% | 1020.4 hPa | 0 mm | - | - | - |
| 1778054847 | 23.89° C | 42% | 1020.4 hPa | 0 mm | - | - | - |
| 1778054787 | 23.89° C | 42% | 1020.4 hPa | 0 mm | - | - | - |
| 1778054727 | 23.89° C | 42% | 1020.4 hPa | 0 mm | - | - | - |
| 1778054667 | 23.89° C | 42% | 1020.4 hPa | 0 mm | - | - | - |
| 1778054607 | 22.22° C | 88% | 1010.3 hPa | 0 mm | - | - | - |
| 1778054547 | 23.89° C | 42% | 1020.4 hPa | 0 mm | - | - | - |
| 1778054487 | 22.22° C | 88% | 1010.3 hPa | 0 mm | - | - | - |
| 1778054397 | 22.22° C | 88% | 1010.3 hPa | 0 mm | - | - | - |
* Rain latest hour (hover to see other rain measurements)
** Current wind speed in m/s (hover to see current wind gust speed)